sensor_id;sensor_type;location;lat;lon;timestamp;P1;durP1;ratioP1;P2;durP2;ratioP2
68192;SDS011;55012;47.562;18.414;2023-08-24T00:00:40;22.00;;;14.05;;
68192;SDS011;55012;47.562;18.414;2023-08-24T00:03:06;22.60;;;12.95;;
68192;SDS011;55012;47.562;18.414;2023-08-24T00:05:33;19.38;;;12.98;;
68192;SDS011;55012;47.562;18.414;2023-08-24T00:08:04;20.67;;;12.35;;
68192;SDS011;55012;47.562;18.414;2023-08-24T00:10:30;20.83;;;12.38;;
68192;SDS011;55012;47.562;18.414;2023-08-24T00:12:55;16.60;;;11.50;;
68192;SDS011;55012;47.562;18.414;2023-08-24T00:15:21;17.70;;;12.07;;
68192;SDS011;55012;47.562;18.414;2023-08-24T00:17:46;17.35;;;11.93;;
68192;SDS011;55012;47.562;18.414;2023-08-24T00:20:12;16.73;;;11.55;;
68192;SDS011;55012;47.562;18.414;2023-08-24T00:22:38;17.08;;;11.45;;
68192;SDS011;55012;47.562;18.414;2023-08-24T00:25:05;15.82;;;11.30;;
68192;SDS011;55012;47.562;18.414;2023-08-24T00:27:31;14.90;;;10.95;;
68192;SDS011;55012;47.562;18.414;2023-08-24T00:29:57;16.50;;;11.65;;
68192;SDS011;55012;47.562;18.414;2023-08-24T00:32:23;21.42;;;11.70;;
68192;SDS011;55012;47.562;18.414;2023-08-24T00:34:48;19.38;;;12.60;;
68192;SDS011;55012;47.562;18.414;2023-08-24T00:37:14;16.85;;;11.77;;
68192;SDS011;55012;47.562;18.414;2023-08-24T00:39:39;19.60;;;12.27;;
68192;SDS011;55012;47.562;18.414;2023-08-24T00:42:05;20.23;;;13.20;;
68192;SDS011;55012;47.562;18.414;2023-08-24T00:44:31;19.27;;;13.25;;
68192;SDS011;55012;47.562;18.414;2023-08-24T00:46:57;20.90;;;14.32;;
68192;SDS011;55012;47.562;18.414;2023-08-24T00:49:23;25.55;;;17.90;;
68192;SDS011;55012;47.562;18.414;2023-08-24T00:51:50;27.80;;;19.30;;
68192;SDS011;55012;47.562;18.414;2023-08-24T00:54:16;29.10;;;19.58;;
68192;SDS011;55012;47.562;18.414;2023-08-24T00:56:42;27.13;;;19.17;;
68192;SDS011;55012;47.562;18.414;2023-08-24T00:59:08;27.65;;;18.50;;
68192;SDS011;55012;47.562;18.414;2023-08-24T01:01:34;25.38;;;17.98;;
68192;SDS011;55012;47.562;18.414;2023-08-24T01:04:00;25.13;;;18.08;;
68192;SDS011;55012;47.562;18.414;2023-08-24T01:06:25;28.88;;;18.25;;
68192;SDS011;55012;47.562;18.414;2023-08-24T01:08:50;26.50;;;17.40;;
68192;SDS011;55012;47.562;18.414;2023-08-24T01:16:43;18.98;;;14.10;;
68192;SDS011;55012;47.562;18.414;2023-08-24T01:19:16;18.40;;;12.30;;
68192;SDS011;55012;47.562;18.414;2023-08-24T01:21:52;18.70;;;11.30;;
68192;SDS011;55012;47.562;18.414;2023-08-24T01:24:26;14.18;;;10.50;;
68192;SDS011;55012;47.562;18.414;2023-08-24T01:27:02;14.10;;;10.05;;
68192;SDS011;55012;47.562;18.414;2023-08-24T01:29:29;15.15;;;10.48;;
68192;SDS011;55012;47.562;18.414;2023-08-24T01:31:55;13.25;;;10.10;;
68192;SDS011;55012;47.562;18.414;2023-08-24T01:34:20;15.50;;;10.00;;
68192;SDS011;55012;47.562;18.414;2023-08-24T01:36:46;11.75;;;9.25;;
68192;SDS011;55012;47.562;18.414;2023-08-24T01:39:14;12.65;;;9.45;;
68192;SDS011;55012;47.562;18.414;2023-08-24T01:42:00;11.98;;;9.50;;
68192;SDS011;55012;47.562;18.414;2023-08-24T01:44:30;12.23;;;9.43;;
68192;SDS011;55012;47.562;18.414;2023-08-24T01:47:01;16.40;;;10.10;;
68192;SDS011;55012;47.562;18.414;2023-08-24T01:49:28;17.20;;;12.32;;
68192;SDS011;55012;47.562;18.414;2023-08-24T01:51:55;23.42;;;16.00;;
68192;SDS011;55012;47.562;18.414;2023-08-24T01:54:22;23.08;;;17.73;;
68192;SDS011;55012;47.562;18.414;2023-08-24T01:56:47;23.50;;;18.17;;
68192;SDS011;55012;47.562;18.414;2023-08-24T01:59:13;20.33;;;15.95;;
68192;SDS011;55012;47.562;18.414;2023-08-24T02:01:38;25.48;;;19.48;;
68192;SDS011;55012;47.562;18.414;2023-08-24T02:04:03;26.95;;;19.70;;
68192;SDS011;55012;47.562;18.414;2023-08-24T02:06:29;18.20;;;14.43;;
68192;SDS011;55012;47.562;18.414;2023-08-24T02:08:54;19.63;;;14.63;;
68192;SDS011;55012;47.562;18.414;2023-08-24T02:11:20;19.70;;;14.50;;
68192;SDS011;55012;47.562;18.414;2023-08-24T02:13:45;17.98;;;13.57;;
68192;SDS011;55012;47.562;18.414;2023-08-24T02:16:11;19.63;;;14.15;;
68192;SDS011;55012;47.562;18.414;2023-08-24T02:18:37;17.80;;;13.85;;
68192;SDS011;55012;47.562;18.414;2023-08-24T02:21:09;21.80;;;12.75;;
68192;SDS011;55012;47.562;18.414;2023-08-24T02:23:37;19.98;;;12.85;;
68192;SDS011;55012;47.562;18.414;2023-08-24T02:26:03;17.80;;;12.82;;
68192;SDS011;55012;47.562;18.414;2023-08-24T02:28:29;19.00;;;12.98;;
68192;SDS011;55012;47.562;18.414;2023-08-24T02:30:54;18.73;;;13.38;;
68192;SDS011;55012;47.562;18.414;2023-08-24T02:33:24;21.10;;;14.68;;
68192;SDS011;55012;47.562;18.414;2023-08-24T02:35:50;21.23;;;13.80;;
68192;SDS011;55012;47.562;18.414;2023-08-24T02:38:17;20.90;;;14.63;;
68192;SDS011;55012;47.562;18.414;2023-08-24T02:40:42;20.48;;;14.95;;
68192;SDS011;55012;47.562;18.414;2023-08-24T02:43:08;19.13;;;14.48;;
68192;SDS011;55012;47.562;18.414;2023-08-24T02:45:33;21.02;;;14.70;;
68192;SDS011;55012;47.562;18.414;2023-08-24T02:47:59;20.38;;;14.57;;
68192;SDS011;55012;47.562;18.414;2023-08-24T02:50:24;19.58;;;14.73;;
68192;SDS011;55012;47.562;18.414;2023-08-24T02:52:50;20.60;;;14.77;;
68192;SDS011;55012;47.562;18.414;2023-08-24T02:55:16;23.13;;;15.00;;
68192;SDS011;55012;47.562;18.414;2023-08-24T02:57:42;20.50;;;14.13;;
68192;SDS011;55012;47.562;18.414;2023-08-24T03:00:07;22.38;;;14.32;;
68192;SDS011;55012;47.562;18.414;2023-08-24T03:02:34;20.90;;;14.70;;
68192;SDS011;55012;47.562;18.414;2023-08-24T03:05:01;20.25;;;14.07;;
68192;SDS011;55012;47.562;18.414;2023-08-24T03:07:27;20.05;;;14.13;;
68192;SDS011;55012;47.562;18.414;2023-08-24T03:09:53;22.25;;;15.05;;
68192;SDS011;55012;47.562;18.414;2023-08-24T03:12:18;21.38;;;14.35;;
68192;SDS011;55012;47.562;18.414;2023-08-24T03:14:44;18.60;;;13.30;;
68192;SDS011;55012;47.562;18.414;2023-08-24T03:17:09;17.85;;;13.27;;
68192;SDS011;55012;47.562;18.414;2023-08-24T03:19:35;17.13;;;12.95;;
68192;SDS011;55012;47.562;18.414;2023-08-24T03:22:00;17.13;;;12.45;;
68192;SDS011;55012;47.562;18.414;2023-08-24T03:24:25;15.63;;;11.88;;
68192;SDS011;55012;47.562;18.414;2023-08-24T03:26:51;17.60;;;12.05;;
68192;SDS011;55012;47.562;18.414;2023-08-24T03:29:16;14.98;;;11.48;;
68192;SDS011;55012;47.562;18.414;2023-08-24T03:31:42;16.23;;;11.38;;
68192;SDS011;55012;47.562;18.414;2023-08-24T03:34:07;17.83;;;13.70;;
68192;SDS011;55012;47.562;18.414;2023-08-24T03:36:33;19.33;;;14.82;;
68192;SDS011;55012;47.562;18.414;2023-08-24T03:38:58;17.98;;;13.32;;
68192;SDS011;55012;47.562;18.414;2023-08-24T03:41:24;20.45;;;13.10;;
68192;SDS011;55012;47.562;18.414;2023-08-24T03:43:49;18.13;;;13.32;;
68192;SDS011;55012;47.562;18.414;2023-08-24T03:46:15;20.38;;;12.85;;
68192;SDS011;55012;47.562;18.414;2023-08-24T03:48:40;19.00;;;13.35;;
68192;SDS011;55012;47.562;18.414;2023-08-24T03:51:06;19.85;;;13.07;;
68192;SDS011;55012;47.562;18.414;2023-08-24T03:53:31;20.27;;;13.25;;
68192;SDS011;55012;47.562;18.414;2023-08-24T03:55:57;19.23;;;13.75;;
68192;SDS011;55012;47.562;18.414;2023-08-24T03:58:23;21.15;;;13.32;;
68192;SDS011;55012;47.562;18.414;2023-08-24T04:00:49;20.25;;;13.48;;
68192;SDS011;55012;47.562;18.414;2023-08-24T04:03:15;20.00;;;13.75;;
68192;SDS011;55012;47.562;18.414;2023-08-24T04:05:40;20.98;;;14.02;;
68192;SDS011;55012;47.562;18.414;2023-08-24T04:08:06;17.70;;;14.10;;
68192;SDS011;55012;47.562;18.414;2023-08-24T04:10:32;19.85;;;14.35;;
68192;SDS011;55012;47.562;18.414;2023-08-24T04:12:58;20.08;;;13.48;;
68192;SDS011;55012;47.562;18.414;2023-08-24T04:15:23;20.08;;;13.77;;
68192;SDS011;55012;47.562;18.414;2023-08-24T04:17:49;20.50;;;14.07;;
68192;SDS011;55012;47.562;18.414;2023-08-24T04:20:15;19.35;;;13.93;;
68192;SDS011;55012;47.562;18.414;2023-08-24T04:22:41;19.40;;;14.02;;
68192;SDS011;55012;47.562;18.414;2023-08-24T04:25:07;21.30;;;14.23;;
68192;SDS011;55012;47.562;18.414;2023-08-24T04:27:34;20.90;;;14.10;;
68192;SDS011;55012;47.562;18.414;2023-08-24T04:29:59;24.00;;;16.08;;
68192;SDS011;55012;47.562;18.414;2023-08-24T04:32:25;21.83;;;15.13;;
68192;SDS011;55012;47.562;18.414;2023-08-24T04:34:51;21.65;;;15.18;;
68192;SDS011;55012;47.562;18.414;2023-08-24T04:37:17;22.92;;;15.30;;
68192;SDS011;55012;47.562;18.414;2023-08-24T04:39:42;21.77;;;15.40;;
68192;SDS011;55012;47.562;18.414;2023-08-24T04:42:08;20.05;;;14.70;;
68192;SDS011;55012;47.562;18.414;2023-08-24T04:44:33;23.08;;;15.77;;
68192;SDS011;55012;47.562;18.414;2023-08-24T04:46:59;23.35;;;16.42;;
68192;SDS011;55012;47.562;18.414;2023-08-24T04:49:24;21.17;;;15.48;;
68192;SDS011;55012;47.562;18.414;2023-08-24T04:51:50;21.70;;;15.38;;
68192;SDS011;55012;47.562;18.414;2023-08-24T04:54:15;23.20;;;15.15;;
68192;SDS011;55012;47.562;18.414;2023-08-24T04:56:40;22.88;;;16.98;;
68192;SDS011;55012;47.562;18.414;2023-08-24T04:59:06;24.38;;;16.92;;
68192;SDS011;55012;47.562;18.414;2023-08-24T05:01:33;33.40;;;16.70;;
68192;SDS011;55012;47.562;18.414;2023-08-24T05:03:59;20.35;;;15.88;;
68192;SDS011;55012;47.562;18.414;2023-08-24T05:06:24;22.33;;;15.70;;
68192;SDS011;55012;47.562;18.414;2023-08-24T05:08:50;17.73;;;12.80;;
68192;SDS011;55012;47.562;18.414;2023-08-24T05:11:19;21.38;;;14.30;;
68192;SDS011;55012;47.562;18.414;2023-08-24T05:13:47;16.13;;;12.02;;
68192;SDS011;55012;47.562;18.414;2023-08-24T05:16:13;15.35;;;11.63;;
68192;SDS011;55012;47.562;18.414;2023-08-24T05:18:39;16.77;;;12.60;;
68192;SDS011;55012;47.562;18.414;2023-08-24T05:21:04;15.90;;;11.45;;
68192;SDS011;55012;47.562;18.414;2023-08-24T05:23:31;21.42;;;12.10;;
68192;SDS011;55012;47.562;18.414;2023-08-24T05:25:58;13.70;;;10.10;;
68192;SDS011;55012;47.562;18.414;2023-08-24T05:28:24;17.77;;;10.85;;
68192;SDS011;55012;47.562;18.414;2023-08-24T05:30:51;14.30;;;11.52;;
68192;SDS011;55012;47.562;18.414;2023-08-24T05:33:17;19.42;;;10.60;;
68192;SDS011;55012;47.562;18.414;2023-08-24T05:35:43;13.15;;;10.40;;
68192;SDS011;55012;47.562;18.414;2023-08-24T05:38:08;13.23;;;10.35;;
68192;SDS011;55012;47.562;18.414;2023-08-24T05:40:34;14.35;;;10.52;;
68192;SDS011;55012;47.562;18.414;2023-08-24T05:43:00;14.98;;;12.10;;
68192;SDS011;55012;47.562;18.414;2023-08-24T05:45:25;14.63;;;11.60;;
68192;SDS011;55012;47.562;18.414;2023-08-24T05:47:51;14.88;;;10.18;;
68192;SDS011;55012;47.562;18.414;2023-08-24T05:50:16;12.15;;;10.32;;
68192;SDS011;55012;47.562;18.414;2023-08-24T05:52:42;14.73;;;10.02;;
68192;SDS011;55012;47.562;18.414;2023-08-24T05:55:07;13.35;;;11.45;;
68192;SDS011;55012;47.562;18.414;2023-08-24T05:57:33;18.05;;;13.73;;
68192;SDS011;55012;47.562;18.414;2023-08-24T05:59:58;17.70;;;11.75;;
68192;SDS011;55012;47.562;18.414;2023-08-24T06:02:24;16.35;;;12.90;;
68192;SDS011;55012;47.562;18.414;2023-08-24T06:04:49;19.75;;;13.73;;
68192;SDS011;55012;47.562;18.414;2023-08-24T06:07:16;14.13;;;10.57;;
68192;SDS011;55012;47.562;18.414;2023-08-24T06:09:42;13.80;;;11.02;;
68192;SDS011;55012;47.562;18.414;2023-08-24T06:12:07;20.70;;;14.75;;
68192;SDS011;55012;47.562;18.414;2023-08-24T06:14:33;12.38;;;11.07;;
68192;SDS011;55012;47.562;18.414;2023-08-24T06:16:59;18.92;;;15.23;;
68192;SDS011;55012;47.562;18.414;2023-08-24T06:19:24;20.75;;;15.70;;
68192;SDS011;55012;47.562;18.414;2023-08-24T06:21:50;15.23;;;11.73;;
68192;SDS011;55012;47.562;18.414;2023-08-24T06:24:15;24.58;;;16.20;;
68192;SDS011;55012;47.562;18.414;2023-08-24T06:26:41;13.15;;;11.13;;
68192;SDS011;55012;47.562;18.414;2023-08-24T06:29:06;23.50;;;16.25;;
68192;SDS011;55012;47.562;18.414;2023-08-24T06:31:32;14.63;;;12.02;;
68192;SDS011;55012;47.562;18.414;2023-08-24T06:33:58;27.23;;;18.77;;
68192;SDS011;55012;47.562;18.414;2023-08-24T06:36:23;18.40;;;13.70;;
68192;SDS011;55012;47.562;18.414;2023-08-24T06:38:49;14.60;;;11.80;;
68192;SDS011;55012;47.562;18.414;2023-08-24T06:41:14;21.80;;;16.90;;
68192;SDS011;55012;47.562;18.414;2023-08-24T06:43:40;19.67;;;15.48;;
68192;SDS011;55012;47.562;18.414;2023-08-24T06:46:06;16.20;;;12.88;;
68192;SDS011;55012;47.562;18.414;2023-08-24T06:48:35;20.88;;;17.45;;
68192;SDS011;55012;47.562;18.414;2023-08-24T06:51:02;24.70;;;19.80;;
68192;SDS011;55012;47.562;18.414;2023-08-24T06:53:27;13.98;;;12.32;;
68192;SDS011;55012;47.562;18.414;2023-08-24T06:55:54;13.55;;;12.00;;
68192;SDS011;55012;47.562;18.414;2023-08-24T06:58:22;17.70;;;14.45;;
68192;SDS011;55012;47.562;18.414;2023-08-24T07:00:48;16.92;;;13.95;;
68192;SDS011;55012;47.562;18.414;2023-08-24T07:03:17;21.90;;;18.45;;
68192;SDS011;55012;47.562;18.414;2023-08-24T07:05:43;26.92;;;20.02;;
68192;SDS011;55012;47.562;18.414;2023-08-24T07:08:10;25.65;;;19.70;;
68192;SDS011;55012;47.562;18.414;2023-08-24T07:10:35;18.25;;;14.60;;
68192;SDS011;55012;47.562;18.414;2023-08-24T07:13:01;22.08;;;18.23;;
68192;SDS011;55012;47.562;18.414;2023-08-24T07:15:26;25.33;;;19.65;;
68192;SDS011;55012;47.562;18.414;2023-08-24T07:17:51;16.58;;;13.35;;
68192;SDS011;55012;47.562;18.414;2023-08-24T07:20:17;13.82;;;12.27;;
68192;SDS011;55012;47.562;18.414;2023-08-24T07:22:42;21.42;;;16.48;;
68192;SDS011;55012;47.562;18.414;2023-08-24T07:25:08;17.80;;;14.38;;
68192;SDS011;55012;47.562;18.414;2023-08-24T07:27:35;22.27;;;18.40;;
68192;SDS011;55012;47.562;18.414;2023-08-24T07:30:01;19.10;;;12.82;;
68192;SDS011;55012;47.562;18.414;2023-08-24T07:32:31;23.50;;;17.60;;
68192;SDS011;55012;47.562;18.414;2023-08-24T07:34:57;14.80;;;11.93;;
68192;SDS011;55012;47.562;18.414;2023-08-24T07:37:24;18.77;;;14.18;;
68192;SDS011;55012;47.562;18.414;2023-08-24T07:39:50;14.10;;;12.25;;
68192;SDS011;55012;47.562;18.414;2023-08-24T07:42:19;15.45;;;13.32;;
68192;SDS011;55012;47.562;18.414;2023-08-24T07:44:46;19.02;;;13.95;;
68192;SDS011;55012;47.562;18.414;2023-08-24T07:47:11;19.42;;;13.85;;
68192;SDS011;55012;47.562;18.414;2023-08-24T07:49:37;16.55;;;13.00;;
68192;SDS011;55012;47.562;18.414;2023-08-24T07:52:08;21.15;;;15.57;;
68192;SDS011;55012;47.562;18.414;2023-08-24T07:54:34;16.33;;;13.15;;
68192;SDS011;55012;47.562;18.414;2023-08-24T07:57:00;16.90;;;12.43;;
68192;SDS011;55012;47.562;18.414;2023-08-24T07:59:26;17.33;;;12.88;;
68192;SDS011;55012;47.562;18.414;2023-08-24T08:01:51;18.70;;;13.45;;
68192;SDS011;55012;47.562;18.414;2023-08-24T08:04:17;18.33;;;13.20;;
68192;SDS011;55012;47.562;18.414;2023-08-24T08:06:42;17.90;;;13.38;;
68192;SDS011;55012;47.562;18.414;2023-08-24T08:09:07;16.95;;;12.70;;
68192;SDS011;55012;47.562;18.414;2023-08-24T08:11:33;15.57;;;12.40;;
68192;SDS011;55012;47.562;18.414;2023-08-24T08:13:59;15.02;;;12.02;;
68192;SDS011;55012;47.562;18.414;2023-08-24T08:16:25;16.45;;;12.38;;
68192;SDS011;55012;47.562;18.414;2023-08-24T08:18:51;13.23;;;11.30;;
68192;SDS011;55012;47.562;18.414;2023-08-24T08:21:17;11.20;;;9.30;;
68192;SDS011;55012;47.562;18.414;2023-08-24T08:23:45;13.93;;;10.00;;
68192;SDS011;55012;47.562;18.414;2023-08-24T08:26:11;14.07;;;10.27;;
68192;SDS011;55012;47.562;18.414;2023-08-24T08:28:38;13.32;;;10.55;;
68192;SDS011;55012;47.562;18.414;2023-08-24T08:31:04;14.43;;;10.88;;
68192;SDS011;55012;47.562;18.414;2023-08-24T08:33:31;14.50;;;12.32;;
68192;SDS011;55012;47.562;18.414;2023-08-24T08:35:56;15.65;;;11.75;;
68192;SDS011;55012;47.562;18.414;2023-08-24T08:38:22;16.23;;;12.10;;
68192;SDS011;55012;47.562;18.414;2023-08-24T08:40:50;18.77;;;11.40;;
68192;SDS011;55012;47.562;18.414;2023-08-24T08:43:17;13.98;;;11.48;;
68192;SDS011;55012;47.562;18.414;2023-08-24T08:45:44;15.35;;;11.38;;
68192;SDS011;55012;47.562;18.414;2023-08-24T08:48:09;16.85;;;12.30;;
68192;SDS011;55012;47.562;18.414;2023-08-24T08:50:36;16.98;;;11.70;;
68192;SDS011;55012;47.562;18.414;2023-08-24T08:53:02;13.90;;;11.68;;
68192;SDS011;55012;47.562;18.414;2023-08-24T08:55:28;14.27;;;11.20;;
68192;SDS011;55012;47.562;18.414;2023-08-24T08:57:55;15.50;;;10.65;;
68192;SDS011;55012;47.562;18.414;2023-08-24T09:00:23;13.82;;;10.15;;
68192;SDS011;55012;47.562;18.414;2023-08-24T09:02:49;17.85;;;10.43;;
68192;SDS011;55012;47.562;18.414;2023-08-24T09:05:18;12.77;;;9.10;;
68192;SDS011;55012;47.562;18.414;2023-08-24T09:07:45;13.50;;;9.10;;
68192;SDS011;55012;47.562;18.414;2023-08-24T09:10:12;11.70;;;9.75;;
68192;SDS011;55012;47.562;18.414;2023-08-24T09:12:38;13.73;;;9.50;;
68192;SDS011;55012;47.562;18.414;2023-08-24T09:15:04;12.10;;;9.40;;
68192;SDS011;55012;47.562;18.414;2023-08-24T09:17:31;13.15;;;9.40;;
68192;SDS011;55012;47.562;18.414;2023-08-24T09:19:58;10.75;;;9.02;;
68192;SDS011;55012;47.562;18.414;2023-08-24T09:22:25;10.98;;;9.32;;
68192;SDS011;55012;47.562;18.414;2023-08-24T09:24:51;11.52;;;8.98;;
68192;SDS011;55012;47.562;18.414;2023-08-24T09:27:20;12.45;;;9.10;;
68192;SDS011;55012;47.562;18.414;2023-08-24T09:29:50;11.48;;;9.00;;
68192;SDS011;55012;47.562;18.414;2023-08-24T09:34:55;11.82;;;8.40;;
68192;SDS011;55012;47.562;18.414;2023-08-24T09:37:21;10.20;;;6.82;;
68192;SDS011;55012;47.562;18.414;2023-08-24T09:39:47;10.45;;;7.13;;
68192;SDS011;55012;47.562;18.414;2023-08-24T09:42:13;10.82;;;7.43;;
68192;SDS011;55012;47.562;18.414;2023-08-24T09:44:45;12.98;;;7.80;;
68192;SDS011;55012;47.562;18.414;2023-08-24T09:47:11;9.32;;;6.97;;
68192;SDS011;55012;47.562;18.414;2023-08-24T09:49:37;11.38;;;7.38;;
68192;SDS011;55012;47.562;18.414;2023-08-24T09:52:06;10.25;;;7.60;;
68192;SDS011;55012;47.562;18.414;2023-08-24T09:54:36;12.48;;;7.13;;
68192;SDS011;55012;47.562;18.414;2023-08-24T09:57:02;9.38;;;6.68;;
68192;SDS011;55012;47.562;18.414;2023-08-24T09:59:29;8.40;;;6.80;;
68192;SDS011;55012;47.562;18.414;2023-08-24T10:01:56;8.55;;;6.70;;
68192;SDS011;55012;47.562;18.414;2023-08-24T10:04:23;10.73;;;7.07;;
68192;SDS011;55012;47.562;18.414;2023-08-24T10:06:59;6.90;;;6.20;;
68192;SDS011;55012;47.562;18.414;2023-08-24T10:12:31;11.00;;;6.63;;
68192;SDS011;55012;47.562;18.414;2023-08-24T10:15:01;9.88;;;7.03;;
68192;SDS011;55012;47.562;18.414;2023-08-24T10:17:32;9.38;;;6.90;;
68192;SDS011;55012;47.562;18.414;2023-08-24T10:19:59;11.13;;;7.00;;
68192;SDS011;55012;47.562;18.414;2023-08-24T10:22:34;9.65;;;6.68;;
68192;SDS011;55012;47.562;18.414;2023-08-24T10:25:00;10.32;;;6.80;;
68192;SDS011;55012;47.562;18.414;2023-08-24T10:27:26;8.93;;;6.90;;
68192;SDS011;55012;47.562;18.414;2023-08-24T10:29:53;9.95;;;7.30;;
68192;SDS011;55012;47.562;18.414;2023-08-24T10:32:21;8.43;;;6.82;;
68192;SDS011;55012;47.562;18.414;2023-08-24T10:34:49;8.73;;;6.80;;
68192;SDS011;55012;47.562;18.414;2023-08-24T10:37:15;9.80;;;6.97;;
68192;SDS011;55012;47.562;18.414;2023-08-24T10:39:44;9.23;;;6.90;;
68192;SDS011;55012;47.562;18.414;2023-08-24T10:42:11;8.80;;;6.22;;
68192;SDS011;55012;47.562;18.414;2023-08-24T10:44:38;8.38;;;6.05;;
68192;SDS011;55012;47.562;18.414;2023-08-24T10:47:08;6.78;;;5.93;;
68192;SDS011;55012;47.562;18.414;2023-08-24T10:49:42;9.85;;;6.30;;
68192;SDS011;55012;47.562;18.414;2023-08-24T10:54:48;8.88;;;6.45;;
68192;SDS011;55012;47.562;18.414;2023-08-24T10:57:18;8.50;;;6.47;;
68192;SDS011;55012;47.562;18.414;2023-08-24T11:02:50;8.10;;;6.65;;
68192;SDS011;55012;47.562;18.414;2023-08-24T11:05:17;9.23;;;6.38;;
68192;SDS011;55012;47.562;18.414;2023-08-24T11:10:21;8.57;;;6.60;;
68192;SDS011;55012;47.562;18.414;2023-08-24T11:15:29;7.97;;;6.15;;
68192;SDS011;55012;47.562;18.414;2023-08-24T11:18:11;9.43;;;6.63;;
68192;SDS011;55012;47.562;18.414;2023-08-24T11:20:48;8.55;;;6.20;;
68192;SDS011;55012;47.562;18.414;2023-08-24T11:23:15;10.00;;;5.90;;
68192;SDS011;55012;47.562;18.414;2023-08-24T11:25:42;10.55;;;5.75;;
68192;SDS011;55012;47.562;18.414;2023-08-24T11:28:07;8.30;;;5.93;;
68192;SDS011;55012;47.562;18.414;2023-08-24T11:30:33;7.50;;;5.75;;
68192;SDS011;55012;47.562;18.414;2023-08-24T11:33:00;8.68;;;5.57;;
68192;SDS011;55012;47.562;18.414;2023-08-24T11:35:26;9.80;;;5.80;;
68192;SDS011;55012;47.562;18.414;2023-08-24T11:37:52;8.30;;;5.82;;
68192;SDS011;55012;47.562;18.414;2023-08-24T11:40:18;6.93;;;5.40;;
68192;SDS011;55012;47.562;18.414;2023-08-24T11:42:45;7.60;;;5.70;;
68192;SDS011;55012;47.562;18.414;2023-08-24T11:45:18;6.32;;;5.20;;
68192;SDS011;55012;47.562;18.414;2023-08-24T11:47:43;7.50;;;5.65;;
68192;SDS011;55012;47.562;18.414;2023-08-24T11:50:09;6.60;;;5.90;;
68192;SDS011;55012;47.562;18.414;2023-08-24T11:52:43;8.05;;;5.55;;
68192;SDS011;55012;47.562;18.414;2023-08-24T11:55:10;10.18;;;5.60;;
68192;SDS011;55012;47.562;18.414;2023-08-24T11:57:35;6.65;;;5.72;;
68192;SDS011;55012;47.562;18.414;2023-08-24T12:00:05;8.25;;;5.43;;
68192;SDS011;55012;47.562;18.414;2023-08-24T12:02:31;8.18;;;5.88;;
68192;SDS011;55012;47.562;18.414;2023-08-24T12:04:57;7.25;;;5.60;;
68192;SDS011;55012;47.562;18.414;2023-08-24T12:07:23;7.07;;;5.38;;
68192;SDS011;55012;47.562;18.414;2023-08-24T12:09:49;9.32;;;5.75;;
68192;SDS011;55012;47.562;18.414;2023-08-24T12:12:18;7.43;;;5.60;;
68192;SDS011;55012;47.562;18.414;2023-08-24T12:14:48;8.32;;;5.90;;
68192;SDS011;55012;47.562;18.414;2023-08-24T12:17:15;7.97;;;5.85;;
68192;SDS011;55012;47.562;18.414;2023-08-24T12:19:45;9.38;;;6.80;;
68192;SDS011;55012;47.562;18.414;2023-08-24T12:22:14;8.55;;;6.20;;
68192;SDS011;55012;47.562;18.414;2023-08-24T12:24:44;9.13;;;6.57;;
68192;SDS011;55012;47.562;18.414;2023-08-24T12:27:17;10.65;;;6.68;;
68192;SDS011;55012;47.562;18.414;2023-08-24T12:29:46;8.45;;;6.40;;
68192;SDS011;55012;47.562;18.414;2023-08-24T12:32:12;8.35;;;6.03;;
68192;SDS011;55012;47.562;18.414;2023-08-24T12:34:37;11.48;;;6.15;;
68192;SDS011;55012;47.562;18.414;2023-08-24T12:37:03;7.45;;;6.10;;
68192;SDS011;55012;47.562;18.414;2023-08-24T12:39:32;7.97;;;5.80;;
68192;SDS011;55012;47.562;18.414;2023-08-24T12:42:00;7.50;;;5.85;;
68192;SDS011;55012;47.562;18.414;2023-08-24T12:44:26;8.43;;;6.20;;
68192;SDS011;55012;47.562;18.414;2023-08-24T12:46:51;7.25;;;5.90;;
68192;SDS011;55012;47.562;18.414;2023-08-24T12:49:17;7.85;;;6.13;;
68192;SDS011;55012;47.562;18.414;2023-08-24T12:51:42;7.32;;;6.00;;
68192;SDS011;55012;47.562;18.414;2023-08-24T12:54:07;12.23;;;6.20;;
68192;SDS011;55012;47.562;18.414;2023-08-24T12:56:33;9.52;;;6.32;;
68192;SDS011;55012;47.562;18.414;2023-08-24T12:59:00;8.90;;;6.10;;
68192;SDS011;55012;47.562;18.414;2023-08-24T13:01:25;7.72;;;6.05;;
68192;SDS011;55012;47.562;18.414;2023-08-24T13:03:52;6.38;;;5.47;;
68192;SDS011;55012;47.562;18.414;2023-08-24T13:06:17;8.05;;;5.78;;
68192;SDS011;55012;47.562;18.414;2023-08-24T13:08:43;8.05;;;5.60;;
68192;SDS011;55012;47.562;18.414;2023-08-24T13:11:09;12.20;;;6.43;;
68192;SDS011;55012;47.562;18.414;2023-08-24T13:13:36;7.43;;;5.70;;
68192;SDS011;55012;47.562;18.414;2023-08-24T13:16:02;6.47;;;5.50;;
68192;SDS011;55012;47.562;18.414;2023-08-24T13:18:27;6.13;;;5.43;;
68192;SDS011;55012;47.562;18.414;2023-08-24T13:20:53;9.80;;;5.70;;
68192;SDS011;55012;47.562;18.414;2023-08-24T13:23:18;10.57;;;5.65;;
68192;SDS011;55012;47.562;18.414;2023-08-24T13:25:44;8.65;;;5.65;;
68192;SDS011;55012;47.562;18.414;2023-08-24T13:28:09;7.60;;;5.60;;
68192;SDS011;55012;47.562;18.414;2023-08-24T13:30:35;9.05;;;5.88;;
68192;SDS011;55012;47.562;18.414;2023-08-24T13:33:00;7.00;;;5.60;;
68192;SDS011;55012;47.562;18.414;2023-08-24T13:35:26;6.78;;;5.60;;
68192;SDS011;55012;47.562;18.414;2023-08-24T13:37:51;10.15;;;6.07;;
68192;SDS011;55012;47.562;18.414;2023-08-24T13:40:17;8.77;;;5.47;;
68192;SDS011;55012;47.562;18.414;2023-08-24T13:42:42;8.70;;;5.57;;
68192;SDS011;55012;47.562;18.414;2023-08-24T13:45:08;8.73;;;5.80;;
68192;SDS011;55012;47.562;18.414;2023-08-24T13:47:33;6.60;;;5.72;;
68192;SDS011;55012;47.562;18.414;2023-08-24T13:49:59;11.82;;;5.90;;
68192;SDS011;55012;47.562;18.414;2023-08-24T13:52:24;7.57;;;5.43;;
68192;SDS011;55012;47.562;18.414;2023-08-24T13:54:50;7.03;;;5.40;;
68192;SDS011;55012;47.562;18.414;2023-08-24T13:57:15;11.40;;;5.38;;
68192;SDS011;55012;47.562;18.414;2023-08-24T13:59:41;7.13;;;5.10;;
68192;SDS011;55012;47.562;18.414;2023-08-24T14:02:06;7.30;;;5.57;;
68192;SDS011;55012;47.562;18.414;2023-08-24T14:04:32;6.20;;;4.78;;
68192;SDS011;55012;47.562;18.414;2023-08-24T14:06:58;7.85;;;4.78;;
68192;SDS011;55012;47.562;18.414;2023-08-24T14:09:23;8.02;;;4.53;;
68192;SDS011;55012;47.562;18.414;2023-08-24T14:11:48;7.85;;;4.70;;
68192;SDS011;55012;47.562;18.414;2023-08-24T14:14:14;6.65;;;4.82;;
68192;SDS011;55012;47.562;18.414;2023-08-24T14:16:40;6.00;;;4.82;;
68192;SDS011;55012;47.562;18.414;2023-08-24T14:19:05;5.53;;;4.45;;
68192;SDS011;55012;47.562;18.414;2023-08-24T14:21:31;5.88;;;5.15;;
68192;SDS011;55012;47.562;18.414;2023-08-24T14:23:56;5.78;;;4.13;;
68192;SDS011;55012;47.562;18.414;2023-08-24T14:26:22;4.50;;;4.10;;
68192;SDS011;55012;47.562;18.414;2023-08-24T14:28:54;4.85;;;4.20;;
68192;SDS011;55012;47.562;18.414;2023-08-24T14:31:22;5.50;;;4.28;;
68192;SDS011;55012;47.562;18.414;2023-08-24T14:33:49;4.50;;;4.10;;